Deary, ID

7:44 AM PDT on October 24, 2014 (GMT -0700)
ITD Deary ID US | Change Station
CLOSE
Current Station
Personal Weather Station
Location: Deary, ID
Elevation: 2932 ft
Nearby Weather Stations

Elev 2932 ft 46.80 °N, 116.55 °W | Updated 59 minutes ago

Overcast
Overcast
42 °F
Feels Like 42 °F
N
0
Wind Variable Wind from West
Gusts 1.0 mph

Today
High -- | Low -- °F
--% Chance of Precip.
Yesterday
High -- | Low -- °F
Precip. -- in
7:16 AM 5:42 PM
New Moon, 1% visible
Pressure 30.12 in
Visibility 10.0 miles
Clouds Scattered Clouds 12000 ft
Windchill 42 °F
Dew Point 42 °F
Humidity 100%
Rainfall 0.42 in
Snow Depth 0 in , 1 in , 0 in
UV 0 out of 12
Pollen .80 out of 12
Air Quality Not available.
Flu Activity Sporadic
METAR KPUW 241353Z AUTO 00000KT 10SM SCT120 06/04 A3009 RMK AO2 SLP198 T00610039

More Conditions Fewer Conditions

Pressure 30.12 in
Visibility 10.0 miles
Clouds Scattered Clouds 12000 ft
Windchill 42 °F
Dew Point 42 °F
Humidity 100%
Rainfall 0.42 in
Snow Depth 0 in , 1 in , 0 in
UV 0 out of 12
Pollen .80 out of 12
Air Quality Not available.
Flu Activity Sporadic
METAR KPUW 241353Z AUTO 00000KT 10SM SCT120 06/04 A3009 RMK AO2 SLP198 T00610039

More Conditions Fewer Conditions

10-Day Weather Forecast

Almanac

Astronomy

Oct. 24, 2014 Rise Set
Actual Time 7:16 AM PDT 5:42 PM PDT
Civil Twilight 6:45 AM PDT 6:14 PM PDT
Nautical Twilight 6:10 AM PDT 6:49 PM PDT
Astronomical Twilight 5:35 AM PDT 7:24 PM PDT
Moon 8:02 AM PDT 6:22 PM PDT
Length of Visible Light 11h 28m
Length of Day
10h 26m
Tomorrow will be 3m 7s shorter.
New Moon, 1% of the Moon is Illuminated
Today
New Moon
Oct 30
First Quarter
Nov 6
Full
Nov 14
Last Quarter
Nov 22
New

Today's Extremes

State Highs State Lows

Community

WunderPhotos

Upload Photos

1,764,581 photos uploaded!

WunderBlogs® & News

Nearby

Snow Depth

Station Depth Elevation
Sherwin 0 in 3200 ft
Moscow Mountain 1 in 4700 ft
Elk Butte 0 in 5690 ft
Mica Creek 2 in 4750 ft
Lost Lake 0 in 6110 ft

Earthquake Activity

City Distance Mag. Time & Date
No recent earthquake activity has been reported nearby.
Minimum magnitude displayed is 2.5.

Coastal Water Temperatures

Place Temperature
No Stations Reporting

Nearby Weather Stations